createdAt,value
2023-03-11T00:00:40.665Z,99944.16
2023-03-11T00:03:09.867Z,99934.06
2023-03-11T00:05:39.490Z,99938.75
2023-03-11T00:08:16.716Z,99927.13
2023-03-11T00:10:46.345Z,99929.31
2023-03-11T00:13:17.030Z,99923.88
2023-03-11T00:15:48.525Z,99919.78
2023-03-11T00:18:17.388Z,99919.16
2023-03-11T00:20:46.973Z,99927.63
2023-03-11T00:23:15.574Z,99917.75
2023-03-11T00:25:44.908Z,99909.78
2023-03-11T00:28:14.449Z,99902.66
2023-03-11T00:30:43.824Z,99912.75
2023-03-11T00:33:14.788Z,99902.19
2023-03-11T00:35:43.680Z,99903.66
2023-03-11T00:38:15.408Z,99894.13
2023-03-11T00:40:44.698Z,99892.19
2023-03-11T00:43:12.727Z,99888.03
2023-03-11T00:45:40.277Z,99901.16
2023-03-11T00:48:09.105Z,99889.75
2023-03-11T00:50:38.398Z,99885.38
2023-03-11T00:53:06.576Z,99881.97
2023-03-11T00:55:35.727Z,99878.66
2023-03-11T00:58:07.236Z,99878.66
2023-03-11T01:00:41.745Z,99880.50
2023-03-11T01:03:09.920Z,99871.84
2023-03-11T01:05:39.332Z,99863.22
2023-03-11T01:08:07.471Z,99866.75
2023-03-11T01:10:36.158Z,99850.31
2023-03-11T01:13:04.539Z,99860.97
2023-03-11T01:15:35.753Z,99849.25
2023-03-11T01:18:05.082Z,99854.63
2023-03-11T01:20:35.393Z,99853.75
2023-03-11T01:23:03.010Z,99843.97
2023-03-11T01:25:30.822Z,99851.03
2023-03-11T01:27:59.596Z,99853.97
2023-03-11T01:30:29.764Z,99860.69
2023-03-11T01:32:59.827Z,99851.41
2023-03-11T01:35:29.624Z,99856.53
2023-03-11T01:37:58.286Z,99853.56
2023-03-11T01:40:35.991Z,99839.59
2023-03-11T01:43:28.423Z,99833.66
2023-03-11T01:45:56.385Z,99837.75
2023-03-11T01:48:39.021Z,99830.84
2023-03-11T01:51:07.246Z,99833.75
2023-03-11T01:53:41.378Z,99842.81
2023-03-11T01:56:09.601Z,99834.06
2023-03-11T01:58:41.958Z,99826.03
2023-03-11T02:01:09.870Z,99824.25
2023-03-11T02:03:41.911Z,99818.84
2023-03-11T02:06:17.224Z,99816.28
2023-03-11T02:08:45.448Z,99806.84
2023-03-11T02:11:30.702Z,99805.53
2023-03-11T02:14:03.607Z,99805.53
2023-03-11T02:16:34.407Z,99800.31
2023-03-11T02:19:26.108Z,99797.63
2023-03-11T02:21:54.424Z,99791.47
2023-03-11T02:24:35.872Z,99798.94
2023-03-11T02:27:16.443Z,99793.19
2023-03-11T02:29:49.885Z,99792.25
2023-03-11T02:32:19.367Z,99794.25
2023-03-11T02:34:47.427Z,99794.09
2023-03-11T02:37:17.473Z,99782.75
2023-03-11T02:39:54.276Z,99778.88
2023-03-11T02:42:24.928Z,99789.09
2023-03-11T02:45:10.775Z,99785.47
2023-03-11T02:47:40.711Z,99788.31
2023-03-11T02:50:16.245Z,99777.41
2023-03-11T02:52:49.395Z,99777.59
2023-03-11T02:55:18.464Z,99773.09
2023-03-11T02:57:50.420Z,99774.91
2023-03-11T03:00:18.557Z,99773.03
2023-03-11T03:02:54.141Z,99771.03
2023-03-11T03:05:22.875Z,99770.41
2023-03-11T03:07:52.224Z,99764.91
2023-03-11T03:10:22.315Z,99764.25
2023-03-11T03:12:56.078Z,99759.94
2023-03-11T03:15:23.661Z,99758.34
2023-03-11T03:17:53.211Z,99750.44
2023-03-11T03:20:22.894Z,99747.25
2023-03-11T03:22:54.599Z,99750.94
2023-03-11T03:25:26.625Z,99754.59
2023-03-11T03:27:55.712Z,99734.78
2023-03-11T03:30:24.146Z,99740.00
2023-03-11T03:32:56.356Z,99743.41
2023-03-11T03:35:25.422Z,99743.16
2023-03-11T03:38:03.417Z,99723.25
2023-03-11T03:40:31.833Z,99728.47
2023-03-11T03:43:02.437Z,99728.38
2023-03-11T03:45:32.027Z,99732.41
2023-03-11T03:47:59.846Z,99734.19
2023-03-11T03:50:33.849Z,99746.84
2023-03-11T03:53:01.720Z,99738.28
2023-03-11T03:55:29.481Z,99729.31
2023-03-11T03:57:58.075Z,99729.78
2023-03-11T04:00:29.777Z,99723.00
2023-03-11T04:03:04.072Z,99728.91
2023-03-11T04:05:52.030Z,99734.22
2023-03-11T04:08:27.819Z,99715.16
2023-03-11T04:10:59.229Z,99713.88
2023-03-11T04:13:29.050Z,99697.88
2023-03-11T04:15:56.685Z,99708.91
2023-03-11T04:18:26.024Z,99703.88
2023-03-11T04:20:54.733Z,99692.38
2023-03-11T04:23:25.603Z,99694.91
2023-03-11T04:25:53.423Z,99700.00
2023-03-11T04:28:21.027Z,99688.84
2023-03-11T04:30:48.577Z,99682.50
2023-03-11T04:33:20.354Z,99704.78
2023-03-11T04:35:49.664Z,99689.84
2023-03-11T04:38:19.540Z,99694.75
2023-03-11T04:40:48.157Z,99690.59
2023-03-11T04:43:16.952Z,99694.25
2023-03-11T04:45:45.720Z,99700.59
2023-03-11T04:48:14.156Z,99695.28
2023-03-11T04:50:42.533Z,99687.44
2023-03-11T04:53:11.504Z,99689.09
2023-03-11T04:55:41.621Z,99689.94
2023-03-11T04:58:09.501Z,99675.00
2023-03-11T05:00:39.053Z,99674.66
2023-03-11T05:03:10.407Z,99681.41
2023-03-11T05:05:39.061Z,99670.56
2023-03-11T05:08:07.151Z,99674.91
2023-03-11T05:10:36.842Z,99677.16
2023-03-11T05:13:06.917Z,99673.38
2023-03-11T05:15:38.551Z,99654.47
2023-03-11T05:18:09.192Z,99667.25
2023-03-11T05:20:38.752Z,99668.59
2023-03-11T05:23:08.320Z,99658.75
2023-03-11T05:25:37.753Z,99664.84
2023-03-11T05:28:07.317Z,99662.72
2023-03-11T05:30:39.289Z,99667.59
2023-03-11T05:33:06.987Z,99677.53
2023-03-11T05:35:34.513Z,99695.69
2023-03-11T05:38:02.385Z,99687.69
2023-03-11T05:40:31.259Z,99682.78
2023-03-11T05:42:59.166Z,99679.59
2023-03-11T05:45:33.166Z,99682.00
2023-03-11T05:48:02.498Z,99671.44
2023-03-11T05:50:31.519Z,99667.81
2023-03-11T05:52:59.164Z,99661.34
2023-03-11T05:55:29.766Z,99655.41
2023-03-11T05:57:57.577Z,99648.84
2023-03-11T06:00:29.137Z,99658.19
2023-03-11T06:03:19.163Z,99653.72
2023-03-11T06:05:48.846Z,99647.78
2023-03-11T06:08:17.231Z,99642.16
2023-03-11T06:10:47.257Z,99647.53
2023-03-11T06:13:16.979Z,99641.31
2023-03-11T06:15:51.617Z,99651.09
2023-03-11T06:18:28.418Z,99654.78
2023-03-11T06:21:01.656Z,99640.69
2023-03-11T06:23:30.993Z,99644.63
2023-03-11T06:26:05.496Z,99641.38
2023-03-11T06:28:45.349Z,99644.47
2023-03-11T06:31:16.847Z,99644.38
2023-03-11T06:33:45.353Z,99648.47
2023-03-11T06:36:15.404Z,99644.53
2023-03-11T06:38:46.712Z,99645.53
2023-03-11T06:41:16.292Z,99647.25
2023-03-11T06:43:43.912Z,99638.69
2023-03-11T06:46:20.062Z,99637.97
2023-03-11T06:48:51.866Z,99633.75
2023-03-11T06:51:21.551Z,99630.72
2023-03-11T06:53:53.583Z,99635.66
2023-03-11T06:56:24.927Z,99639.06
2023-03-11T06:58:57.133Z,99635.66
2023-03-11T07:01:28.817Z,99631.16
2023-03-11T07:03:58.123Z,99626.16
2023-03-11T07:06:28.527Z,99621.28
2023-03-11T07:09:04.943Z,99613.13
2023-03-11T07:11:42.548Z,99610.44
2023-03-11T07:14:24.684Z,99603.97
2023-03-11T07:16:56.344Z,99602.28
2023-03-11T07:19:30.610Z,99603.66
2023-03-11T07:21:58.521Z,99603.50
2023-03-11T07:24:29.425Z,99595.09
2023-03-11T07:26:57.095Z,99589.25
2023-03-11T07:29:24.599Z,99591.44
2023-03-11T07:31:52.912Z,99588.53
2023-03-11T07:34:25.155Z,99571.75
2023-03-11T07:36:55.618Z,99577.56
2023-03-11T07:39:23.642Z,99563.09
2023-03-11T07:41:51.757Z,99573.81
2023-03-11T07:44:19.646Z,99564.03
2023-03-11T07:46:47.382Z,99551.25
2023-03-11T07:49:15.408Z,99552.03
2023-03-11T07:51:44.925Z,99552.97
2023-03-11T07:54:13.184Z,99551.78
2023-03-11T07:56:41.714Z,99541.28
2023-03-11T07:59:10.038Z,99549.75
2023-03-11T08:01:41.376Z,99549.75
2023-03-11T08:04:14.194Z,99556.50
2023-03-11T08:06:44.032Z,99550.00
2023-03-11T08:09:12.901Z,99550.25
2023-03-11T08:11:42.029Z,99549.94
2023-03-11T08:14:10.098Z,99554.16
2023-03-11T08:16:41.395Z,99551.47
2023-03-11T08:19:12.287Z,99554.94
2023-03-11T08:21:40.256Z,99548.66
2023-03-11T08:24:08.095Z,99536.88
2023-03-11T08:26:36.728Z,99534.34
2023-03-11T08:29:04.543Z,99542.47
2023-03-11T08:31:35.318Z,99523.31
2023-03-11T08:34:07.712Z,99521.28
2023-03-11T08:36:36.585Z,99526.09
2023-03-11T08:39:04.403Z,99534.28
2023-03-11T08:41:32.289Z,99536.91
2023-03-11T08:44:00.205Z,99527.16
2023-03-11T08:46:29.505Z,99527.09
2023-03-11T08:49:00.890Z,99513.75
2023-03-11T08:51:32.217Z,99516.78
2023-03-11T08:54:03.514Z,99503.66
2023-03-11T08:56:31.775Z,99511.16
2023-03-11T08:58:59.908Z,99518.78
2023-03-11T09:01:29.580Z,99515.31
2023-03-11T09:03:57.590Z,99520.97
2023-03-11T09:06:30.516Z,99523.69
2023-03-11T09:09:00.173Z,99529.22
2023-03-11T09:11:27.784Z,99525.38
2023-03-11T09:13:55.873Z,99523.41
2023-03-11T09:16:24.928Z,99536.97
2023-03-11T09:18:52.687Z,99534.25
2023-03-11T09:21:23.061Z,99535.25
2023-03-11T09:23:50.902Z,99542.13
2023-03-11T09:26:18.418Z,99521.75
2023-03-11T09:28:49.274Z,99516.13
2023-03-11T09:31:18.612Z,99503.44
2023-03-11T09:33:47.232Z,99505.22
2023-03-11T09:36:17.515Z,99505.91
2023-03-11T09:38:45.265Z,99495.47
2023-03-11T09:41:18.021Z,99498.84
2023-03-11T09:44:01.074Z,99496.22
2023-03-11T09:46:51.132Z,99480.16
2023-03-11T09:49:31.498Z,99481.53
2023-03-11T09:52:15.266Z,99476.84
2023-03-11T09:54:47.176Z,99469.53
2023-03-11T09:57:21.574Z,99473.09
2023-03-11T09:59:52.516Z,99473.72
2023-03-11T10:02:22.748Z,99463.88
2023-03-11T10:05:09.919Z,99451.06
2023-03-11T10:07:47.307Z,99451.06
2023-03-11T10:10:15.605Z,99439.69
2023-03-11T10:13:01.953Z,99437.50
2023-03-11T10:15:49.135Z,99433.94
2023-03-11T10:18:34.156Z,99438.25
2023-03-11T10:21:11.807Z,99424.69
2023-03-11T10:24:16.767Z,99415.56
2023-03-11T10:26:50.442Z,99412.63
2023-03-11T10:29:21.032Z,99402.97
2023-03-11T10:32:23.782Z,99402.66
2023-03-11T10:35:04.409Z,99408.38
2023-03-11T10:37:49.451Z,99405.00
2023-03-11T10:40:35.446Z,99390.78
2023-03-11T10:43:13.683Z,99379.66
2023-03-11T10:45:48.504Z,99372.25
2023-03-11T10:48:19.141Z,99362.56
2023-03-11T10:51:01.373Z,99353.31
2023-03-11T10:53:30.197Z,99346.13
2023-03-11T10:56:00.029Z,99336.88
2023-03-11T10:58:30.105Z,99340.47
2023-03-11T11:01:18.364Z,99330.22
2023-03-11T11:03:50.318Z,99329.72
2023-03-11T11:06:29.952Z,99327.19
2023-03-11T11:09:09.397Z,99329.59
2023-03-11T11:11:38.931Z,99323.38
2023-03-11T11:14:07.536Z,99322.53
2023-03-11T11:16:35.601Z,99315.47
2023-03-11T11:19:13.236Z,99309.06
2023-03-11T11:21:49.861Z,99299.03
2023-03-11T11:24:28.827Z,99305.16
2023-03-11T11:27:26.011Z,99296.81
2023-03-11T11:30:23.440Z,99305.34
2023-03-11T11:33:32.685Z,99301.88
2023-03-11T11:36:03.802Z,99291.44
2023-03-11T11:38:34.804Z,99302.41
2023-03-11T11:41:05.182Z,99296.41
2023-03-11T11:43:46.046Z,99299.13
2023-03-11T11:46:21.358Z,99300.91
2023-03-11T11:49:04.660Z,99289.09
2023-03-11T11:51:37.551Z,99283.72
2023-03-11T11:54:17.642Z,99281.19
2023-03-11T11:56:47.511Z,99275.72
2023-03-11T11:59:20.457Z,99274.75
2023-03-11T12:02:05.218Z,99277.72
2023-03-11T12:04:50.762Z,99264.22
2023-03-11T12:07:22.402Z,99263.38
2023-03-11T12:09:58.599Z,99264.53
2023-03-11T12:12:46.948Z,99266.75
2023-03-11T12:15:34.029Z,99249.97
2023-03-11T12:18:09.559Z,99247.00
2023-03-11T12:20:54.554Z,99251.66
2023-03-11T12:24:06.026Z,99253.16
2023-03-11T12:26:38.198Z,99251.66
2023-03-11T12:29:26.613Z,99236.81
2023-03-11T12:31:56.278Z,99244.00
2023-03-11T12:34:25.080Z,99248.53
2023-03-11T12:37:03.462Z,99247.47
2023-03-11T12:39:35.034Z,99244.94
2023-03-11T12:42:16.553Z,99242.31
2023-03-11T12:44:46.829Z,99238.84
2023-03-11T12:47:19.053Z,99235.25
2023-03-11T12:49:50.131Z,99237.16
2023-03-11T12:52:21.900Z,99221.94
2023-03-11T12:54:59.281Z,99229.75
2023-03-11T12:57:40.830Z,99225.31
2023-03-11T13:00:40.826Z,99223.44
2023-03-11T13:03:26.529Z,99222.47
2023-03-11T13:06:26.393Z,99210.97
2023-03-11T13:08:57.980Z,99215.59
2023-03-11T13:11:41.744Z,99212.88
2023-03-11T13:14:27.419Z,99214.56
2023-03-11T13:16:55.952Z,99207.50
2023-03-11T13:19:26.603Z,99200.19
2023-03-11T13:21:55.658Z,99198.31
2023-03-11T13:24:25.916Z,99193.53
2023-03-11T13:27:04.885Z,99191.66
2023-03-11T13:29:43.984Z,99190.38
2023-03-11T13:32:27.931Z,99186.66
2023-03-11T13:35:18.164Z,99186.13
2023-03-11T13:38:05.745Z,99188.56
2023-03-11T13:40:38.559Z,99179.19
2023-03-11T13:43:19.101Z,99182.78
2023-03-11T13:46:27.230Z,99176.53
2023-03-11T13:49:05.248Z,99169.16
2023-03-11T13:51:32.732Z,99167.22
2023-03-11T13:54:25.327Z,99157.75
2023-03-11T13:57:01.269Z,99158.47
2023-03-11T13:59:31.533Z,99158.16
2023-03-11T14:02:09.197Z,99161.75
2023-03-11T14:04:38.757Z,99148.56
2023-03-11T14:07:28.442Z,99146.13
2023-03-11T14:10:23.231Z,99142.53
2023-03-11T14:12:52.023Z,99132.22
2023-03-11T14:15:27.288Z,99133.47
2023-03-11T14:18:25.115Z,99123.97
2023-03-11T14:20:52.969Z,99123.25
2023-03-11T14:23:21.246Z,99113.53
2023-03-11T14:25:57.650Z,99121.44
2023-03-11T14:28:36.151Z,99112.50
2023-03-11T14:31:07.250Z,99111.53
2023-03-11T14:33:42.832Z,99110.78
2023-03-11T14:36:14.085Z,99114.28
2023-03-11T14:38:44.436Z,99111.53
2023-03-11T14:41:15.120Z,99112.13
2023-03-11T14:43:51.667Z,99113.31
2023-03-11T14:46:28.447Z,99106.63
2023-03-11T14:48:58.673Z,99110.00
2023-03-11T14:51:31.478Z,99097.91
2023-03-11T14:53:58.983Z,99104.78
2023-03-11T14:56:27.816Z,99097.69
2023-03-11T14:59:18.708Z,99102.50
2023-03-11T15:01:48.388Z,99097.94
2023-03-11T15:04:26.947Z,99101.19
2023-03-11T15:06:55.582Z,99087.91
2023-03-11T15:09:24.424Z,99086.81
2023-03-11T15:12:00.886Z,99074.25
2023-03-11T15:14:37.906Z,99070.66
2023-03-11T15:17:37.403Z,99073.16
2023-03-11T15:20:25.184Z,99079.41
2023-03-11T15:23:01.526Z,99073.88
2023-03-11T15:25:34.226Z,99071.97
2023-03-11T15:28:22.224Z,99070.28
2023-03-11T15:30:50.233Z,99071.22
2023-03-11T15:33:24.168Z,99073.88
2023-03-11T15:35:53.093Z,99065.94
2023-03-11T15:38:27.765Z,99062.47
2023-03-11T15:41:01.044Z,99068.38
2023-03-11T15:43:34.863Z,99049.41
2023-03-11T15:46:03.629Z,99050.97
2023-03-11T15:48:31.836Z,99044.13
2023-03-11T15:51:00.580Z,99045.56
2023-03-11T15:53:29.990Z,99044.22
2023-03-11T15:56:07.332Z,99046.50
2023-03-11T15:58:39.428Z,99048.28
2023-03-11T16:01:08.484Z,99043.34
2023-03-11T16:03:36.646Z,99058.47
2023-03-11T16:06:04.403Z,99052.59
2023-03-11T16:08:32.943Z,99051.25
2023-03-11T16:11:00.752Z,99048.63
2023-03-11T16:13:33.844Z,99048.84
2023-03-11T16:16:04.183Z,99048.25
2023-03-11T16:18:32.858Z,99044.97
2023-03-11T16:21:08.671Z,99046.66
2023-03-11T16:23:50.785Z,99048.56
2023-03-11T16:26:22.622Z,99049.28
2023-03-11T16:28:50.266Z,99047.84
2023-03-11T16:31:18.001Z,99050.00
2023-03-11T16:33:45.939Z,99045.78
2023-03-11T16:36:13.622Z,99042.41
2023-03-11T16:38:47.639Z,99032.34
2023-03-11T16:41:16.911Z,99037.63
2023-03-11T16:43:45.008Z,99031.59
2023-03-11T16:46:12.679Z,99042.03
2023-03-11T16:48:40.265Z,99034.25
2023-03-11T16:51:08.186Z,99034.34
2023-03-11T16:53:36.007Z,99029.22
2023-03-11T16:56:08.082Z,99032.81
2023-03-11T16:58:35.820Z,99039.50
2023-03-11T17:01:03.580Z,99037.00
2023-03-11T17:03:40.962Z,99036.16
2023-03-11T17:06:10.562Z,99036.66
2023-03-11T17:08:39.476Z,99046.25
2023-03-11T17:11:14.800Z,99033.19
2023-03-11T17:13:42.709Z,99046.84
2023-03-11T17:16:10.264Z,99042.06
2023-03-11T17:18:42.881Z,99038.34
2023-03-11T17:21:14.224Z,99046.19
2023-03-11T17:23:42.489Z,99039.00
2023-03-11T17:26:15.741Z,99032.75
2023-03-11T17:28:44.588Z,99026.53
2023-03-11T17:31:16.547Z,99014.09
2023-03-11T17:33:44.626Z,99007.72
2023-03-11T17:36:16.027Z,98999.19
2023-03-11T17:38:47.199Z,98999.19
2023-03-11T17:41:16.879Z,98996.22
2023-03-11T17:43:44.997Z,98991.66
2023-03-11T17:46:15.546Z,99001.16
2023-03-11T17:48:44.899Z,98997.91
2023-03-11T17:51:17.772Z,99000.69
2023-03-11T17:53:47.264Z,99004.75
2023-03-11T17:56:22.736Z,98997.66
2023-03-11T17:58:52.127Z,98987.97
2023-03-11T18:01:22.737Z,98994.19
2023-03-11T18:03:51.086Z,98983.53
2023-03-11T18:06:20.566Z,98990.59
2023-03-11T18:08:48.498Z,98986.06
2023-03-11T18:11:19.735Z,98992.75
2023-03-11T18:13:49.726Z,98984.00
2023-03-11T18:16:26.221Z,98985.81
2023-03-11T18:18:56.854Z,98990.00
2023-03-11T18:21:26.961Z,98968.81
2023-03-11T18:24:00.952Z,98953.94
2023-03-11T18:26:30.368Z,98951.06
2023-03-11T18:28:59.924Z,98955.38
2023-03-11T18:31:30.558Z,98954.31
2023-03-11T18:34:07.437Z,98958.38
2023-03-11T18:36:37.694Z,98954.63
2023-03-11T18:39:12.392Z,98961.50
2023-03-11T18:41:42.869Z,98958.84
2023-03-11T18:44:16.181Z,98954.28
2023-03-11T18:46:43.759Z,98953.22
2023-03-11T18:49:13.048Z,98946.97
2023-03-11T18:51:41.112Z,98945.88
2023-03-11T18:54:08.884Z,98950.06
2023-03-11T18:56:38.107Z,98950.06
2023-03-11T18:59:05.767Z,98955.59
2023-03-11T19:01:34.526Z,98951.03
2023-03-11T19:04:02.240Z,98942.66
2023-03-11T19:06:29.929Z,98949.72
2023-03-11T19:08:58.072Z,98954.16
2023-03-11T19:11:27.082Z,98957.75
2023-03-11T19:13:55.081Z,98955.25
2023-03-11T19:16:24.873Z,98949.34
2023-03-11T19:18:55.237Z,98943.97
2023-03-11T19:21:23.383Z,98944.06
2023-03-11T19:23:52.880Z,98939.06
2023-03-11T19:26:25.736Z,98934.13
2023-03-11T19:28:59.332Z,98934.25
2023-03-11T19:31:27.866Z,98919.38
2023-03-11T19:33:55.988Z,98930.06
2023-03-11T19:36:23.491Z,98912.44
2023-03-11T19:38:51.198Z,98925.00
2023-03-11T19:41:19.857Z,98906.69
2023-03-11T19:43:48.295Z,98907.63
2023-03-11T19:46:21.418Z,98914.72
2023-03-11T19:48:49.131Z,98891.94
2023-03-11T19:51:19.470Z,98907.16
2023-03-11T19:53:47.421Z,98888.09
2023-03-11T19:56:17.605Z,98891.81
2023-03-11T19:58:45.408Z,98890.97
2023-03-11T20:01:19.985Z,98879.56
2023-03-11T20:03:47.623Z,98892.91
2023-03-11T20:06:18.378Z,98870.13
2023-03-11T20:08:50.892Z,98893.03
2023-03-11T20:11:18.861Z,98886.78
2023-03-11T20:13:48.588Z,98878.16
2023-03-11T20:16:19.207Z,98882.69
2023-03-11T20:18:51.567Z,98886.88
2023-03-11T20:21:19.683Z,98891.09
2023-03-11T20:23:49.096Z,98904.75
2023-03-11T20:26:19.242Z,98910.03
2023-03-11T20:28:47.286Z,98903.81
2023-03-11T20:31:19.934Z,98905.38
2023-03-11T20:33:49.793Z,98899.72
2023-03-11T20:36:21.289Z,98905.47
2023-03-11T20:38:51.130Z,98902.81
2023-03-11T20:41:19.509Z,98910.63
2023-03-11T20:43:47.100Z,98910.63
2023-03-11T20:46:16.722Z,98910.38
2023-03-11T20:48:46.327Z,98910.03
2023-03-11T20:51:19.614Z,98912.56
2023-03-11T20:53:48.175Z,98907.91
2023-03-11T20:56:21.025Z,98911.94
2023-03-11T20:58:51.159Z,98893.50
2023-03-11T21:01:23.986Z,98890.97
2023-03-11T21:03:57.437Z,98883.91
2023-03-11T21:06:29.465Z,98880.28
2023-03-11T21:08:58.966Z,98878.88
2023-03-11T21:11:27.594Z,98877.06
2023-03-11T21:13:55.602Z,98875.63
2023-03-11T21:16:24.386Z,98873.94
2023-03-11T21:18:53.027Z,98877.66
2023-03-11T21:21:21.023Z,98857.66
2023-03-11T21:23:50.053Z,98872.28
2023-03-11T21:26:19.654Z,98868.06
2023-03-11T21:28:47.338Z,98862.78
2023-03-11T21:31:18.412Z,98861.13
2023-03-11T21:33:46.812Z,98870.97
2023-03-11T21:36:17.556Z,98870.09
2023-03-11T21:38:47.327Z,98862.94
2023-03-11T21:41:19.027Z,98874.19
2023-03-11T21:43:47.148Z,98871.41
2023-03-11T21:46:18.021Z,98866.97
2023-03-11T21:48:46.860Z,98864.47
2023-03-11T21:51:15.889Z,98861.25
2023-03-11T21:53:43.806Z,98866.88
2023-03-11T21:56:13.703Z,98868.56
2023-03-11T21:58:42.146Z,98879.97
2023-03-11T22:01:13.552Z,98860.88
2023-03-11T22:03:41.542Z,98874.19
2023-03-11T22:06:12.034Z,98858.38
2023-03-11T22:08:43.954Z,98858.59
2023-03-11T22:11:18.376Z,98864.00
2023-03-11T22:13:47.562Z,98866.63
2023-03-11T22:16:15.663Z,98864.25
2023-03-11T22:18:43.835Z,98869.41
2023-03-11T22:21:11.682Z,98849.41
2023-03-11T22:23:39.233Z,98848.53
2023-03-11T22:26:08.961Z,98837.75
2023-03-11T22:28:37.601Z,98840.75
2023-03-11T22:31:07.640Z,98846.88
2023-03-11T22:33:35.776Z,98840.41
2023-03-11T22:36:04.908Z,98833.78
2023-03-11T22:38:34.234Z,98842.75
2023-03-11T22:41:04.579Z,98832.47
2023-03-11T22:43:32.224Z,98818.66
2023-03-11T22:46:02.115Z,98820.59
2023-03-11T22:48:30.971Z,98806.47
2023-03-11T22:51:00.519Z,98810.06
2023-03-11T22:53:28.415Z,98798.81
2023-03-11T22:55:56.312Z,98807.19
2023-03-11T22:58:23.941Z,98800.22
2023-03-11T23:00:51.484Z,98787.03
2023-03-11T23:03:19.088Z,98782.03
2023-03-11T23:05:46.923Z,98779.28
2023-03-11T23:08:17.790Z,98768.38
2023-03-11T23:10:47.109Z,98772.81
2023-03-11T23:13:14.960Z,98777.94
2023-03-11T23:15:44.166Z,98766.31
2023-03-11T23:18:16.297Z,98762.84
2023-03-11T23:20:44.792Z,98754.25
2023-03-11T23:23:13.638Z,98731.97
2023-03-11T23:25:42.263Z,98740.59
2023-03-11T23:28:11.425Z,98734.25
2023-03-11T23:30:40.100Z,98748.25
2023-03-11T23:33:09.405Z,98760.59
2023-03-11T23:35:44.428Z,98735.34
2023-03-11T23:38:14.677Z,98728.59
2023-03-11T23:40:42.370Z,98724.78
2023-03-11T23:43:09.893Z,98716.88
2023-03-11T23:45:37.676Z,98710.16
2023-03-11T23:48:06.233Z,98701.53
2023-03-11T23:50:35.531Z,98689.09
2023-03-11T23:53:03.354Z,98699.88
2023-03-11T23:55:30.868Z,98700.59
2023-03-11T23:57:58.403Z,98691.72
